createdAt,value
2017-10-23T00:01:16.028Z,89.10
2017-10-23T00:03:43.519Z,89.50
2017-10-23T00:06:11.036Z,89.50
2017-10-23T00:08:38.514Z,89.40
2017-10-23T00:11:06.003Z,89.30
2017-10-23T00:13:33.485Z,89.30
2017-10-23T00:16:00.956Z,89.50
2017-10-23T00:18:28.432Z,89.50
2017-10-23T00:20:55.923Z,90.00
2017-10-23T00:23:23.388Z,89.70
2017-10-23T00:25:50.889Z,89.70
2017-10-23T00:28:18.359Z,89.30
2017-10-23T00:30:45.847Z,89.30
2017-10-23T00:33:13.352Z,90.00
2017-10-23T00:35:40.855Z,89.50
2017-10-23T00:38:09.089Z,90.10
2017-10-23T00:40:36.565Z,90.10
2017-10-23T00:43:04.038Z,90.10
2017-10-23T00:45:32.320Z,90.10
2017-10-23T00:47:59.795Z,90.10
2017-10-23T00:50:27.268Z,90.00
2017-10-23T00:52:54.718Z,90.20
2017-10-23T00:55:22.214Z,90.30
2017-10-23T00:57:49.718Z,90.50
2017-10-23T01:00:17.230Z,90.60
2017-10-23T01:02:44.807Z,90.60
2017-10-23T01:05:13.058Z,90.60
2017-10-23T01:07:40.798Z,90.50
2017-10-23T01:10:08.278Z,90.40
2017-10-23T01:12:35.754Z,90.50
2017-10-23T01:15:03.234Z,90.50
2017-10-23T01:17:31.483Z,90.60
2017-10-23T01:19:58.951Z,90.60
2017-10-23T01:22:26.435Z,90.60
2017-10-23T01:24:54.677Z,90.60
2017-10-23T01:27:22.166Z,90.60
2017-10-23T01:29:50.412Z,90.70
2017-10-23T01:32:17.904Z,90.60
2017-10-23T01:34:45.398Z,90.70
2017-10-23T01:37:12.879Z,90.80
2017-10-23T01:39:40.335Z,90.90
2017-10-23T01:42:07.802Z,90.80
2017-10-23T01:44:35.317Z,90.60
2017-10-23T01:47:02.775Z,90.70
2017-10-23T01:49:30.283Z,90.70
2017-10-23T01:51:57.770Z,90.70
2017-10-23T01:54:25.278Z,90.70
2017-10-23T01:56:52.767Z,90.70
2017-10-23T01:59:20.239Z,90.70
2017-10-23T02:01:47.707Z,90.90
2017-10-23T02:04:15.211Z,91.00
2017-10-23T02:06:42.689Z,91.10
2017-10-23T02:09:10.179Z,91.10
2017-10-23T02:11:37.644Z,91.20
2017-10-23T02:14:05.088Z,91.20
2017-10-23T02:16:32.573Z,91.30
2017-10-23T02:19:00.058Z,91.20
2017-10-23T02:21:27.506Z,91.20
2017-10-23T02:23:54.989Z,91.20
2017-10-23T02:26:23.217Z,91.00
2017-10-23T02:28:50.709Z,91.00
2017-10-23T02:31:18.198Z,91.00
2017-10-23T02:33:45.694Z,91.10
2017-10-23T02:36:13.167Z,90.90
2017-10-23T02:38:40.644Z,90.80
2017-10-23T02:41:08.097Z,90.90
2017-10-23T02:43:35.575Z,90.80
2017-10-23T02:46:03.820Z,90.70
2017-10-23T02:48:31.286Z,90.70
2017-10-23T02:50:58.759Z,90.60
2017-10-23T02:53:27.011Z,90.80
2017-10-23T02:55:54.492Z,90.80
2017-10-23T02:58:21.964Z,90.70
2017-10-23T03:00:49.494Z,90.70
2017-10-23T03:03:16.971Z,90.60
2017-10-23T03:05:44.447Z,90.50
2017-10-23T03:08:12.011Z,90.40
2017-10-23T03:10:39.524Z,90.40
2017-10-23T03:13:07.024Z,90.40
2017-10-23T03:15:35.270Z,90.50
2017-10-23T03:18:02.757Z,90.50
2017-10-23T03:20:30.300Z,90.50
2017-10-23T03:22:57.771Z,90.50
2017-10-23T03:25:25.285Z,90.60
2017-10-23T03:27:53.558Z,90.80
2017-10-23T03:30:21.035Z,90.80
2017-10-23T03:32:48.526Z,90.70
2017-10-23T03:35:16.036Z,90.80
2017-10-23T03:37:43.559Z,90.90
2017-10-23T03:40:11.075Z,90.90
2017-10-23T03:42:38.612Z,91.10
2017-10-23T03:45:06.124Z,91.00
2017-10-23T03:47:33.655Z,91.10
2017-10-23T03:50:01.186Z,91.10
2017-10-23T03:52:28.714Z,91.10
2017-10-23T03:54:56.221Z,91.00
2017-10-23T03:57:23.726Z,90.80
2017-10-23T03:59:51.395Z,90.80
2017-10-23T04:02:18.900Z,90.90
2017-10-23T04:04:46.457Z,90.80
2017-10-23T04:07:14.000Z,90.90
2017-10-23T04:09:41.593Z,91.00
2017-10-23T04:14:41.860Z,91.00
2017-10-23T04:17:09.460Z,90.90
2017-10-23T04:19:37.743Z,91.10
2017-10-23T04:22:05.298Z,91.30
2017-10-23T04:24:32.797Z,91.10
2017-10-23T04:27:00.311Z,91.10
2017-10-23T04:29:27.782Z,91.10
2017-10-23T04:31:56.164Z,91.10
2017-10-23T04:34:23.626Z,91.10
2017-10-23T04:36:51.137Z,91.00
2017-10-23T04:39:18.626Z,90.90
2017-10-23T04:41:46.101Z,91.00
2017-10-23T04:44:14.173Z,91.00
2017-10-23T04:46:41.745Z,91.00
2017-10-23T04:49:09.205Z,90.90
2017-10-23T04:51:36.750Z,90.90
2017-10-23T04:54:04.267Z,90.90
2017-10-23T04:56:31.846Z,90.90
2017-10-23T04:59:00.136Z,91.00
2017-10-23T05:01:27.642Z,91.00
2017-10-23T05:03:55.145Z,91.00
2017-10-23T05:06:22.665Z,91.10
2017-10-23T05:08:50.939Z,91.10
2017-10-23T05:11:19.692Z,91.10
2017-10-23T05:13:47.372Z,91.10
2017-10-23T05:16:14.997Z,91.00
2017-10-23T05:18:43.327Z,91.10
2017-10-23T05:21:10.866Z,91.10
2017-10-23T05:23:38.426Z,91.00
2017-10-23T05:26:06.037Z,91.10
2017-10-23T05:28:33.688Z,91.10
2017-10-23T05:31:01.212Z,91.10
2017-10-23T05:33:28.730Z,91.10
2017-10-23T05:35:56.247Z,91.20
2017-10-23T05:38:23.860Z,91.20
2017-10-23T05:40:51.350Z,91.20
2017-10-23T05:43:18.857Z,91.20
2017-10-23T05:45:46.474Z,91.00
2017-10-23T05:48:14.074Z,91.10
2017-10-23T05:50:41.643Z,91.20
2017-10-23T05:53:09.204Z,91.10
2017-10-23T05:55:36.928Z,91.20
2017-10-23T05:58:04.423Z,91.20
2017-10-23T06:00:32.598Z,91.20
2017-10-23T06:03:01.181Z,91.20
2017-10-23T06:05:29.406Z,91.20
2017-10-23T06:07:56.894Z,91.20
2017-10-23T06:10:24.403Z,91.30
2017-10-23T06:12:52.012Z,91.40
2017-10-23T06:15:19.489Z,91.40
2017-10-23T06:17:47.057Z,91.30
2017-10-23T06:20:15.489Z,91.40
2017-10-23T06:22:43.790Z,91.30
2017-10-23T06:25:11.250Z,91.30
2017-10-23T06:27:39.503Z,91.30
2017-10-23T06:30:07.606Z,91.30
2017-10-23T06:32:36.409Z,91.30
2017-10-23T06:35:04.024Z,91.30
2017-10-23T06:37:31.671Z,91.30
2017-10-23T06:39:59.235Z,91.30
2017-10-23T06:42:26.803Z,91.40
2017-10-23T06:44:56.725Z,91.40
2017-10-23T06:47:24.270Z,91.40
2017-10-23T06:49:51.777Z,91.20
2017-10-23T06:52:19.244Z,91.30
2017-10-23T06:54:46.910Z,91.30
2017-10-23T06:57:14.591Z,91.30
2017-10-23T06:59:42.081Z,91.20
2017-10-23T07:02:09.844Z,91.30
2017-10-23T07:04:37.419Z,91.10
2017-10-23T07:07:04.952Z,91.20
2017-10-23T07:09:32.439Z,91.00
2017-10-23T07:11:59.946Z,91.10
2017-10-23T07:14:27.917Z,91.00
2017-10-23T07:16:55.461Z,90.90
2017-10-23T07:19:22.971Z,91.10
2017-10-23T07:21:50.883Z,91.10
2017-10-23T07:24:19.566Z,91.10
2017-10-23T07:26:47.402Z,91.00
2017-10-23T07:29:14.923Z,91.10
2017-10-23T07:31:43.233Z,91.00
2017-10-23T07:34:10.721Z,91.00
2017-10-23T07:36:38.362Z,91.10
2017-10-23T07:39:05.903Z,90.90
2017-10-23T07:41:34.191Z,91.10
2017-10-23T07:44:02.482Z,90.70
2017-10-23T07:46:29.962Z,90.70
2017-10-23T07:48:57.465Z,90.80
2017-10-23T07:51:24.934Z,90.70
2017-10-23T07:53:52.668Z,90.60
2017-10-23T07:56:20.162Z,90.90
2017-10-23T07:58:47.717Z,90.60
2017-10-23T08:01:15.213Z,90.50
2017-10-23T08:03:43.047Z,90.70
2017-10-23T08:06:10.777Z,90.50
2017-10-23T08:08:38.240Z,90.30
2017-10-23T08:11:05.791Z,90.50
2017-10-23T08:13:34.755Z,90.30
2017-10-23T08:16:02.422Z,90.40
2017-10-23T08:18:31.763Z,90.30
2017-10-23T08:20:59.243Z,90.20
2017-10-23T08:23:26.746Z,90.40
2017-10-23T08:25:54.251Z,90.30
2017-10-23T08:28:21.876Z,90.40
2017-10-23T08:30:49.356Z,90.00
2017-10-23T08:33:17.636Z,90.30
2017-10-23T08:35:46.085Z,90.20
2017-10-23T08:38:13.758Z,90.00
2017-10-23T08:40:41.229Z,90.10
2017-10-23T08:43:09.856Z,90.20
2017-10-23T08:45:37.340Z,90.20
2017-10-23T08:48:04.847Z,90.10
2017-10-23T08:50:32.319Z,90.30
2017-10-23T08:52:59.811Z,90.50
2017-10-23T08:55:27.448Z,90.40
2017-10-23T08:57:55.372Z,90.20
2017-10-23T09:00:22.905Z,90.10
2017-10-23T09:02:50.390Z,90.40
2017-10-23T09:05:17.867Z,90.20
2017-10-23T09:07:45.349Z,90.10
2017-10-23T09:13:33.627Z,90.30
2017-10-23T09:16:01.124Z,90.30
2017-10-23T09:18:30.208Z,90.40
2017-10-23T09:20:57.680Z,90.40
2017-10-23T09:23:25.144Z,90.40
2017-10-23T09:25:53.529Z,90.50
2017-10-23T09:28:20.994Z,90.50
2017-10-23T09:30:48.481Z,90.40
2017-10-23T09:33:16.186Z,90.60
2017-10-23T09:35:43.670Z,90.50
2017-10-23T09:38:11.135Z,90.50
2017-10-23T09:40:38.639Z,90.60
2017-10-23T09:43:06.133Z,90.40
2017-10-23T09:45:33.611Z,90.50
2017-10-23T09:48:01.135Z,90.40
2017-10-23T09:50:29.361Z,90.20
2017-10-23T09:52:56.837Z,90.20
2017-10-23T09:55:24.303Z,90.20
2017-10-23T09:57:51.775Z,90.10
2017-10-23T10:00:19.265Z,90.30
2017-10-23T10:02:46.732Z,90.00
2017-10-23T10:05:14.178Z,90.20
2017-10-23T10:07:41.652Z,90.00
2017-10-23T10:10:09.101Z,90.10
2017-10-23T10:12:36.571Z,90.10
2017-10-23T10:15:04.055Z,90.20
2017-10-23T10:17:31.535Z,90.00
2017-10-23T10:19:59.815Z,89.80
2017-10-23T10:22:27.287Z,89.80
2017-10-23T10:24:55.527Z,90.00
2017-10-23T10:27:23.001Z,90.00
2017-10-23T10:29:50.487Z,90.00
2017-10-23T10:32:17.967Z,90.00
2017-10-23T10:34:45.451Z,89.80
2017-10-23T10:37:12.963Z,89.60
2017-10-23T10:39:40.494Z,90.00
2017-10-23T10:42:07.977Z,89.90
2017-10-23T10:44:35.461Z,89.70
2017-10-23T10:47:02.964Z,90.00
2017-10-23T10:49:30.445Z,89.80
2017-10-23T10:51:57.913Z,90.00
2017-10-23T10:54:25.462Z,89.80
2017-10-23T10:56:52.927Z,89.90
2017-10-23T10:59:20.402Z,90.00
2017-10-23T11:01:47.987Z,89.70
2017-10-23T11:04:15.490Z,89.40
2017-10-23T11:06:42.955Z,89.00
2017-10-23T11:09:11.405Z,89.00
2017-10-23T11:11:38.936Z,89.10
2017-10-23T11:14:06.462Z,88.70
2017-10-23T11:16:33.999Z,89.00
2017-10-23T11:19:01.562Z,88.70
2017-10-23T11:21:29.211Z,88.10
2017-10-23T11:23:56.761Z,88.30
2017-10-23T11:26:25.048Z,87.80
2017-10-23T11:28:52.584Z,87.80
2017-10-23T11:31:20.150Z,87.80
2017-10-23T11:33:47.792Z,87.10
2017-10-23T11:36:15.350Z,86.90
2017-10-23T11:38:42.961Z,87.10
2017-10-23T11:41:10.521Z,87.70
2017-10-23T11:43:39.202Z,87.50
2017-10-23T11:46:06.756Z,87.00
2017-10-23T11:48:34.244Z,87.60
2017-10-23T11:51:01.765Z,87.50
2017-10-23T11:53:29.712Z,87.80
2017-10-23T11:55:57.196Z,86.60
2017-10-23T11:58:24.802Z,87.30
2017-10-23T12:00:52.318Z,87.50
2017-10-23T12:03:20.011Z,87.60
2017-10-23T12:05:47.731Z,88.00
2017-10-23T12:08:15.260Z,87.80
2017-10-23T12:10:42.831Z,88.00
2017-10-23T12:13:10.488Z,88.30
2017-10-23T12:15:38.773Z,87.60
2017-10-23T12:18:06.289Z,87.70
2017-10-23T12:20:33.813Z,87.20
2017-10-23T12:23:03.464Z,87.80
2017-10-23T12:25:30.983Z,88.10
2017-10-23T12:27:58.589Z,88.20
2017-10-23T12:30:26.198Z,88.50
2017-10-23T12:32:53.705Z,88.20
2017-10-23T12:35:21.627Z,87.40
2017-10-23T12:37:49.231Z,87.50
2017-10-23T12:40:16.839Z,87.60
2017-10-23T12:42:44.406Z,87.60
2017-10-23T12:45:12.679Z,88.50
2017-10-23T12:47:41.063Z,88.10
2017-10-23T12:50:08.594Z,88.10
2017-10-23T12:52:36.061Z,87.80
2017-10-23T12:55:05.215Z,88.10
2017-10-23T12:57:32.734Z,87.90
2017-10-23T13:00:00.276Z,88.40
2017-10-23T13:02:28.561Z,89.00
2017-10-23T13:04:56.337Z,88.60
2017-10-23T13:07:23.883Z,88.50
2017-10-23T13:09:51.438Z,88.40
2017-10-23T13:12:18.990Z,88.40
2017-10-23T13:14:46.570Z,88.50
2017-10-23T13:17:14.134Z,88.90
2017-10-23T13:19:41.977Z,89.10
2017-10-23T13:22:09.821Z,89.10
2017-10-23T13:24:37.520Z,89.00
2017-10-23T13:27:06.925Z,88.90
2017-10-23T13:29:36.023Z,88.60
2017-10-23T13:32:04.018Z,88.60
2017-10-23T13:34:32.118Z,88.20
2017-10-23T13:37:01.258Z,88.70
2017-10-23T13:39:31.542Z,89.20
2017-10-23T13:45:06.145Z,88.30
2017-10-23T13:47:34.613Z,88.50
2017-10-23T13:50:05.096Z,88.80
2017-10-23T13:52:32.786Z,89.00
2017-10-23T13:55:03.498Z,88.80
2017-10-23T13:57:31.143Z,88.90
2017-10-23T13:59:58.757Z,88.80
2017-10-23T14:02:27.716Z,88.70
2017-10-23T14:04:55.277Z,88.80
2017-10-23T14:07:22.959Z,88.80
2017-10-23T14:09:50.658Z,88.80
2017-10-23T14:12:18.418Z,88.70
2017-10-23T14:14:46.303Z,88.70
2017-10-23T14:17:13.943Z,88.60
2017-10-23T14:19:41.526Z,88.70
2017-10-23T14:22:10.293Z,88.70
2017-10-23T14:24:37.855Z,88.90
2017-10-23T14:27:05.508Z,88.90
2017-10-23T14:29:33.079Z,88.80
2017-10-23T14:32:00.763Z,88.90
2017-10-23T14:34:28.467Z,88.70
2017-10-23T14:36:56.147Z,88.50
2017-10-23T14:39:23.797Z,88.50
2017-10-23T14:41:51.457Z,88.50
2017-10-23T14:44:19.074Z,88.30
2017-10-23T14:46:46.603Z,88.10
2017-10-23T14:49:14.256Z,88.30
2017-10-23T14:51:41.787Z,88.20
2017-10-23T14:54:09.422Z,88.50
2017-10-23T14:56:36.993Z,88.40
2017-10-23T14:59:05.325Z,88.50
2017-10-23T15:01:32.910Z,88.50
2017-10-23T15:04:00.490Z,88.60
2017-10-23T15:06:28.067Z,88.50
2017-10-23T15:08:55.588Z,88.50
2017-10-23T15:11:23.117Z,88.60
2017-10-23T15:13:50.705Z,88.50
2017-10-23T15:16:18.252Z,88.50
2017-10-23T15:18:45.983Z,88.50
2017-10-23T15:21:13.577Z,88.40
2017-10-23T15:23:41.294Z,88.40
2017-10-23T15:26:08.835Z,88.30
2017-10-23T15:28:36.415Z,88.30
2017-10-23T15:31:03.958Z,88.80
2017-10-23T15:33:32.210Z,88.40
2017-10-23T15:36:08.646Z,88.50
2017-10-23T15:38:41.290Z,88.50
2017-10-23T15:41:09.921Z,88.50
2017-10-23T15:43:37.508Z,88.90
2017-10-23T15:46:05.150Z,88.90
2017-10-23T15:48:32.814Z,89.00
2017-10-23T15:51:01.176Z,89.10
2017-10-23T15:53:29.575Z,89.10
2017-10-23T15:55:57.318Z,89.20
2017-10-23T15:58:26.582Z,89.10
2017-10-23T16:00:55.503Z,89.10
2017-10-23T16:03:23.274Z,89.00
2017-10-23T16:05:52.362Z,89.10
2017-10-23T16:08:20.106Z,89.00
2017-10-23T16:10:55.853Z,89.10
2017-10-23T16:13:24.874Z,88.90
2017-10-23T16:15:52.469Z,89.10
2017-10-23T16:18:20.538Z,89.10
2017-10-23T16:20:48.488Z,88.90
2017-10-23T16:23:17.415Z,89.30
2017-10-23T16:25:47.393Z,89.40
2017-10-23T16:28:30.693Z,89.60
2017-10-23T16:30:59.116Z,89.50
2017-10-23T16:33:26.801Z,89.20
2017-10-23T16:35:54.370Z,89.30
2017-10-23T16:38:21.916Z,89.30
2017-10-23T16:40:49.547Z,89.30
2017-10-23T16:43:17.618Z,89.40
2017-10-23T16:48:19.435Z,89.70
2017-10-23T16:50:47.100Z,90.00
2017-10-23T16:53:16.048Z,90.10
2017-10-23T16:55:43.919Z,90.20
2017-10-23T16:58:11.822Z,90.30
2017-10-23T17:00:39.584Z,90.50
2017-10-23T17:03:07.098Z,90.60
2017-10-23T17:05:38.100Z,90.60
2017-10-23T17:08:06.822Z,90.60
2017-10-23T17:10:37.671Z,90.50
2017-10-23T17:13:12.562Z,90.60
2017-10-23T17:18:22.491Z,90.60
2017-10-23T17:20:50.347Z,90.60
2017-10-23T17:23:18.206Z,90.60
2017-10-23T17:25:50.999Z,90.60
2017-10-23T17:28:18.696Z,90.50
2017-10-23T17:30:46.340Z,90.50
2017-10-23T17:33:13.897Z,90.60
2017-10-23T17:35:41.622Z,90.70
2017-10-23T17:38:09.233Z,90.80
2017-10-23T17:40:36.936Z,90.90
2017-10-23T17:43:04.797Z,90.90
2017-10-23T17:45:32.812Z,90.90
2017-10-23T17:48:04.622Z,91.00
2017-10-23T17:56:48.804Z,91.00
2017-10-23T17:59:16.333Z,91.10
2017-10-23T18:01:43.884Z,91.30
2017-10-23T18:04:11.631Z,91.20
2017-10-23T18:06:39.926Z,91.10
2017-10-23T18:09:07.480Z,91.00
2017-10-23T18:11:35.094Z,91.00
2017-10-23T18:14:02.794Z,90.90
2017-10-23T18:16:30.355Z,90.70
2017-10-23T18:18:59.571Z,90.60
2017-10-23T18:21:27.087Z,90.60
2017-10-23T18:23:54.575Z,90.50
2017-10-23T18:26:22.332Z,90.50
2017-10-23T18:28:49.905Z,90.50
2017-10-23T18:31:17.455Z,90.40
2017-10-23T18:33:45.062Z,90.40
2017-10-23T18:36:12.574Z,90.40
2017-10-23T18:38:40.947Z,90.30
2017-10-23T18:41:09.984Z,90.30
2017-10-23T18:43:37.695Z,90.30
2017-10-23T18:46:05.275Z,90.30
2017-10-23T18:48:32.891Z,90.30
2017-10-23T18:51:00.500Z,90.30
2017-10-23T18:53:28.153Z,90.20
2017-10-23T18:55:55.810Z,90.30
2017-10-23T18:58:23.691Z,90.30
2017-10-23T19:00:51.422Z,90.30
2017-10-23T19:03:19.158Z,90.20
2017-10-23T19:05:47.154Z,90.10
2017-10-23T19:08:15.659Z,90.10
2017-10-23T19:10:43.199Z,90.40
2017-10-23T19:13:12.078Z,90.20
2017-10-23T19:15:43.795Z,90.10
2017-10-23T19:18:11.336Z,90.20
2017-10-23T19:20:38.868Z,90.10
2017-10-23T19:23:06.616Z,90.20
2017-10-23T19:25:34.364Z,90.20
2017-10-23T19:28:01.929Z,90.20
2017-10-23T19:30:29.467Z,90.20
2017-10-23T19:32:57.027Z,90.00
2017-10-23T19:35:24.621Z,90.10
2017-10-23T19:37:52.261Z,90.20
2017-10-23T19:40:19.768Z,90.20
2017-10-23T19:42:47.411Z,90.20
2017-10-23T19:45:14.998Z,90.00
2017-10-23T19:47:42.561Z,90.00
2017-10-23T19:50:10.525Z,90.00
2017-10-23T19:52:38.033Z,90.00
2017-10-23T19:55:05.594Z,90.00
2017-10-23T19:57:51.396Z,89.90
2017-10-23T20:00:20.002Z,90.00
2017-10-23T20:05:37.108Z,90.00
2017-10-23T20:08:04.878Z,90.00
2017-10-23T20:10:42.447Z,90.00
2017-10-23T20:13:10.223Z,90.10
2017-10-23T20:15:40.876Z,90.00
2017-10-23T20:18:08.767Z,90.10
2017-10-23T20:20:36.321Z,90.10
2017-10-23T20:23:03.879Z,90.20
2017-10-23T20:25:31.418Z,90.00
2017-10-23T20:28:06.561Z,90.10
2017-10-23T20:30:35.035Z,90.10
2017-10-23T20:33:03.939Z,90.10
2017-10-23T20:35:32.743Z,90.10
2017-10-23T20:38:01.021Z,90.20
2017-10-23T20:40:28.739Z,90.20
2017-10-23T20:42:56.423Z,90.20
2017-10-23T20:48:45.809Z,90.30
2017-10-23T20:51:13.368Z,90.50
2017-10-23T20:53:40.930Z,90.50
2017-10-23T20:56:22.730Z,90.30
2017-10-23T20:58:56.791Z,90.30
2017-10-23T21:01:26.681Z,90.20
2017-10-23T21:03:56.275Z,90.30
2017-10-23T21:06:23.797Z,90.30
2017-10-23T21:09:00.337Z,90.30
2017-10-23T21:11:31.777Z,90.20
2017-10-23T21:14:02.774Z,90.30
2017-10-23T21:16:30.418Z,90.30
2017-10-23T21:18:58.768Z,90.30
2017-10-23T21:21:27.552Z,90.30
2017-10-23T21:23:55.236Z,90.30
2017-10-23T21:26:22.774Z,90.30
2017-10-23T21:28:51.355Z,90.30
2017-10-23T21:31:18.948Z,90.20
2017-10-23T21:33:46.485Z,90.20
2017-10-23T21:36:14.224Z,90.10
2017-10-23T21:38:42.316Z,90.10
2017-10-23T21:41:12.058Z,90.10
2017-10-23T21:43:39.733Z,90.10
2017-10-23T21:46:07.245Z,90.20
2017-10-23T21:48:34.741Z,90.30
2017-10-23T21:51:02.455Z,90.20
2017-10-23T21:53:29.955Z,90.20
2017-10-23T21:55:57.438Z,90.20
2017-10-23T21:58:24.964Z,90.30
2017-10-23T22:00:52.534Z,90.20
2017-10-23T22:03:20.024Z,90.30
2017-10-23T22:05:47.497Z,90.30
2017-10-23T22:08:15.164Z,90.30
2017-10-23T22:10:42.760Z,90.20
2017-10-23T22:13:10.327Z,90.20
2017-10-23T22:15:38.209Z,90.20
2017-10-23T22:18:05.963Z,90.20
2017-10-23T22:20:33.581Z,90.20
2017-10-23T22:23:01.175Z,90.20
2017-10-23T22:25:28.751Z,90.10
2017-10-23T22:27:56.826Z,90.10
2017-10-23T22:30:24.375Z,90.10
2017-10-23T22:32:53.009Z,90.10
2017-10-23T22:35:20.520Z,90.10
2017-10-23T22:37:48.099Z,90.10
2017-10-23T22:40:15.598Z,90.10
2017-10-23T22:42:45.129Z,90.10
2017-10-23T22:45:12.643Z,90.10
2017-10-23T22:47:40.157Z,90.00
2017-10-23T22:50:08.434Z,90.10
2017-10-23T22:52:35.943Z,90.00
2017-10-23T22:55:03.415Z,90.00
2017-10-23T22:57:30.911Z,90.00
2017-10-23T23:00:00.083Z,90.00
2017-10-23T23:02:27.610Z,90.10
2017-10-23T23:04:55.224Z,90.00
2017-10-23T23:07:22.730Z,90.00
2017-10-23T23:09:56.793Z,90.00
2017-10-23T23:12:26.243Z,90.00
2017-10-23T23:14:53.714Z,90.00
2017-10-23T23:17:27.896Z,90.00
2017-10-23T23:19:55.379Z,90.10
2017-10-23T23:22:23.813Z,90.10
2017-10-23T23:24:52.083Z,90.10
2017-10-23T23:27:20.335Z,90.20
2017-10-23T23:29:47.849Z,90.10
2017-10-23T23:32:15.322Z,90.20
2017-10-23T23:34:42.786Z,90.20
2017-10-23T23:37:10.476Z,90.20
2017-10-23T23:39:39.237Z,90.30
2017-10-23T23:42:06.762Z,90.20
2017-10-23T23:44:34.251Z,90.30
2017-10-23T23:47:01.753Z,90.30
2017-10-23T23:49:29.381Z,90.30
2017-10-23T23:51:56.875Z,90.20
2017-10-23T23:54:24.343Z,90.20
2017-10-23T23:56:51.811Z,90.30
2017-10-23T23:59:19.295Z,90.30
